Time;durP1;ratioP1;P1;durP2;ratioP2;P2;SDS_P1;SDS_P2;PMS_P1;PMS_P2;Temp;Humidity;BMP_temperature;BMP_pressure;BME280_temperature;BME280_humidity;BME280_pressure;Samples;Min_cycle;Max_cycle;Signal;HPM_P1;HPM_P2
2022/09/19 00:00:35;;;;;;;;;;;12.70;99.90;;;;;;5009321;28;20347;-77
2022/09/19 00:03:02;;;;;;;;;;;12.70;99.90;;;;;;5008431;28;19973;-77
2022/09/19 00:05:27;;;;;;;;;;;12.60;99.90;;;;;;5010238;28;19929;-77
2022/09/19 00:07:52;;;;;;;;;;;12.70;99.90;;;;;;5009131;28;19932;-77
2022/09/19 00:10:18;;;;;;;;;;;12.70;99.90;;;;;;5008450;28;19972;-77
2022/09/19 00:12:43;;;;;;;;;;;12.70;99.90;;;;;;5009373;28;19932;-77
2022/09/19 00:15:09;;;;;;;;;;;12.70;99.90;;;;;;5009355;28;19930;-77
2022/09/19 00:17:34;;;;;;;;;;;12.70;99.90;;;;;;5008496;28;20522;-77
2022/09/19 00:20:00;;;;;;;;;;;12.70;99.90;;;;;;5009558;28;19925;-77
2022/09/19 00:22:26;;;;;;;;;;;12.60;99.90;;;;;;5024785;28;20303;-77
2022/09/19 00:24:51;;;;;;;;;;;12.50;99.90;;;;;;5009041;28;19926;-76
2022/09/19 00:27:21;;;;;;;;;;;12.50;99.90;;;;;;5008832;28;19990;-77
2022/09/19 00:29:47;;;;;;;;;;;12.40;99.90;;;;;;5008994;28;20295;-77
2022/09/19 00:32:13;;;;;;;;;;;12.40;99.90;;;;;;5008505;28;20010;-77
2022/09/19 00:34:43;;;;;;;;;;;12.40;99.90;;;;;;5008818;28;20383;-77
2022/09/19 00:37:09;;;;;;;;;;;12.40;99.90;;;;;;5007900;28;19926;-77
2022/09/19 00:39:35;;;;;;;;;;;12.40;99.90;;;;;;5008587;28;19925;-77
2022/09/19 00:42:01;;;;;;;;;;;12.30;99.90;;;;;;5008988;28;20442;-77
2022/09/19 00:44:27;;;;;;;;;;;12.20;99.90;;;;;;5009530;28;20693;-77
2022/09/19 00:46:56;;;;;;;;;;;12.30;99.90;;;;;;5006851;28;19925;-77
2022/09/19 00:49:22;;;;;;;;;;;12.30;99.90;;;;;;5008637;28;20338;-77
2022/09/19 00:51:48;;;;;;;;;;;12.30;99.90;;;;;;5008388;28;19979;-77
2022/09/19 00:54:21;;;;;;;;;;;12.20;99.90;;;;;;5008620;28;20034;-78
2022/09/19 00:56:49;;;;;;;;;;;12.30;99.90;;;;;;5008501;28;20372;-77
2022/09/19 00:59:14;;;;;;;;;;;12.30;99.90;;;;;;5008634;28;19961;-76
2022/09/19 01:01:41;;;;;;;;;;;12.40;99.90;;;;;;5007362;28;20011;-77
2022/09/19 01:04:16;;;;;;;;;;;12.40;99.90;;;;;;5007859;28;19941;-77
2022/09/19 01:06:45;;;;;;;;;;;12.40;99.90;;;;;;5007132;28;20012;-77
2022/09/19 01:09:25;;;;;;;;;;;12.40;99.90;;;;;;5008181;28;19983;-77
2022/09/19 01:11:57;;;;;;;;;;;12.40;99.90;;;;;;4987418;28;20024;-77
2022/09/19 01:14:31;;;;;;;;;;;12.50;99.90;;;;;;4988676;28;19922;-77
2022/09/19 01:17:04;;;;;;;;;;;12.50;99.90;;;;;;4988526;28;19933;-77
2022/09/19 01:19:29;;;;;;;;;;;12.50;99.90;;;;;;4988322;28;20304;-79
2022/09/19 01:22:05;;;;;;;;;;;12.50;99.90;;;;;;4989600;28;19937;-77
2022/09/19 01:24:49;;;;;;;;;;;12.50;99.90;;;;;;4996019;28;19932;-77
2022/09/19 01:27:18;;;;;;;;;;;12.50;99.90;;;;;;5008483;28;19978;-77
2022/09/19 01:30:01;;;;;;;;;;;12.60;99.90;;;;;;5007769;28;19971;-77
2022/09/19 01:32:30;;;;;;;;;;;12.60;99.90;;;;;;5006629;28;20031;-77
2022/09/19 01:34:59;;;;;;;;;;;12.60;99.90;;;;;;5008729;28;19926;-77
2022/09/19 01:37:31;;;;;;;;;;;12.60;99.90;;;;;;5008746;28;19925;-77
2022/09/19 01:40:00;;;;;;;;;;;12.60;99.90;;;;;;5008389;28;19976;-77
2022/09/19 01:42:26;;;;;;;;;;;12.60;99.90;;;;;;5008510;28;19980;-77
2022/09/19 01:44:52;;;;;;;;;;;12.60;99.90;;;;;;5007652;28;20019;-77
2022/09/19 01:47:27;;;;;;;;;;;12.60;99.90;;;;;;5005901;28;19933;-77
2022/09/19 01:50:12;;;;;;;;;;;12.60;99.90;;;;;;5007559;28;20016;-76
2022/09/19 01:52:37;;;;;;;;;;;12.60;99.90;;;;;;5007789;28;19926;-77
2022/09/19 01:55:02;;;;;;;;;;;12.60;99.90;;;;;;5007701;28;19925;-78
2022/09/19 01:57:39;;;;;;;;;;;12.60;99.90;;;;;;5008605;28;19925;-77
2022/09/19 02:00:12;;;;;;;;;;;12.70;99.90;;;;;;5007815;28;20000;-77
2022/09/19 02:02:37;;;;;;;;;;;12.70;99.90;;;;;;5006606;28;19930;-77
2022/09/19 02:05:07;;;;;;;;;;;12.70;99.90;;;;;;5007692;28;20409;-77
2022/09/19 02:07:46;;;;;;;;;;;12.70;99.90;;;;;;5007462;28;20484;-77
2022/09/19 02:10:17;;;;;;;;;;;12.70;99.90;;;;;;5007802;28;20339;-77
2022/09/19 02:12:43;;;;;;;;;;;12.70;99.90;;;;;;5007689;28;19933;-77
2022/09/19 02:15:11;;;;;;;;;;;12.70;99.90;;;;;;5007795;28;19925;-77
2022/09/19 02:17:44;;;;;;;;;;;12.70;99.90;;;;;;5010325;28;19925;-77
2022/09/19 02:20:15;;;;;;;;;;;12.80;99.90;;;;;;5011545;28;20400;-77
2022/09/19 02:22:47;;;;;;;;;;;12.70;99.90;;;;;;5011438;28;19933;-77
2022/09/19 02:25:15;;;;;;;;;;;12.70;99.90;;;;;;5011470;28;19925;-77
2022/09/19 02:27:54;;;;;;;;;;;12.80;99.90;;;;;;5011134;28;19932;-76
2022/09/19 02:30:20;;;;;;;;;;;12.70;99.90;;;;;;5011055;28;19930;-77
2022/09/19 02:32:47;;;;;;;;;;;12.70;99.90;;;;;;5010573;28;19926;-77
2022/09/19 02:35:14;;;;;;;;;;;12.70;99.90;;;;;;5011388;28;20400;-77
2022/09/19 02:38:06;;;;;;;;;;;12.70;99.90;;;;;;5011126;28;19925;-77
2022/09/19 02:40:39;;;;;;;;;;;12.70;99.90;;;;;;5008163;28;19932;-77
2022/09/19 02:43:14;;;;;;;;;;;12.70;99.90;;;;;;5011532;28;19929;-77
2022/09/19 02:45:44;;;;;;;;;;;12.70;99.90;;;;;;4991462;28;19926;-77
2022/09/19 02:48:10;;;;;;;;;;;12.80;99.90;;;;;;4990529;28;19926;-78
2022/09/19 02:50:39;;;;;;;;;;;12.80;99.90;;;;;;4991343;28;19980;-77
2022/09/19 02:53:08;;;;;;;;;;;12.80;99.90;;;;;;4991407;28;19926;-79
2022/09/19 02:55:39;;;;;;;;;;;12.80;99.90;;;;;;4991208;28;19965;-77
2022/09/19 02:58:05;;;;;;;;;;;12.80;99.90;;;;;;4991646;28;19980;-77
2022/09/19 03:00:32;;;;;;;;;;;12.80;99.90;;;;;;4990938;28;19925;-77
2022/09/19 03:04:11;;;;;;;;;;;12.80;99.90;;;;;;4996545;28;20020;-77
2022/09/19 03:05:49;;;;;;;;;;;12.70;99.90;;;;;;5010353;28;19925;-77
2022/09/19 03:08:15;;;;;;;;;;;12.70;99.90;;;;;;5010962;28;19932;-77
2022/09/19 03:10:46;;;;;;;;;;;12.70;99.90;;;;;;5010307;28;19933;-77
2022/09/19 03:13:12;;;;;;;;;;;12.70;99.90;;;;;;5009752;28;19921;-77
2022/09/19 03:15:51;;;;;;;;;;;12.70;99.90;;;;;;5010352;28;19936;-77
2022/09/19 03:18:17;;;;;;;;;;;12.60;99.90;;;;;;5010080;28;19921;-77
2022/09/19 03:20:48;;;;;;;;;;;12.60;99.90;;;;;;5010441;28;19925;-77
2022/09/19 03:23:16;;;;;;;;;;;12.60;99.90;;;;;;5010674;28;19961;-76
2022/09/19 03:25:41;;;;;;;;;;;12.60;99.90;;;;;;5009993;28;19980;-77
2022/09/19 03:28:06;;;;;;;;;;;12.60;99.90;;;;;;5008960;28;19965;-77
2022/09/19 03:30:32;;;;;;;;;;;12.60;99.90;;;;;;5009811;28;19926;-77
2022/09/19 03:32:59;;;;;;;;;;;12.60;99.90;;;;;;5010061;28;20003;-77
2022/09/19 03:35:25;;;;;;;;;;;12.60;99.90;;;;;;5010313;28;19940;-77
2022/09/19 03:37:50;;;;;;;;;;;12.60;99.90;;;;;;5009993;28;19925;-77
2022/09/19 03:40:16;;;;;;;;;;;12.70;99.90;;;;;;5010090;28;19926;-77
2022/09/19 03:42:45;;;;;;;;;;;12.60;99.90;;;;;;5009927;28;19925;-77
2022/09/19 03:45:11;;;;;;;;;;;12.60;99.90;;;;;;5009942;28;19926;-77
2022/09/19 03:47:37;;;;;;;;;;;12.60;99.90;;;;;;5007859;28;19980;-77
2022/09/19 03:50:03;;;;;;;;;;;12.50;99.90;;;;;;5010196;28;19925;-77
2022/09/19 03:52:28;;;;;;;;;;;12.40;99.90;;;;;;5010459;28;19932;-77
2022/09/19 03:54:57;;;;;;;;;;;12.40;99.90;;;;;;5009617;28;19952;-77
2022/09/19 03:57:23;;;;;;;;;;;12.40;99.90;;;;;;5009670;28;19933;-77
2022/09/19 03:59:49;;;;;;;;;;;12.30;99.90;;;;;;5009307;28;19926;-77
2022/09/19 04:02:14;;;;;;;;;;;12.30;99.90;;;;;;5008787;28;19981;-77
2022/09/19 04:04:40;;;;;;;;;;;12.30;99.90;;;;;;5009302;28;19932;-77
2022/09/19 04:07:05;;;;;;;;;;;12.30;99.90;;;;;;5009925;28;20011;-77
2022/09/19 04:09:31;;;;;;;;;;;12.30;99.90;;;;;;5009299;28;19925;-77
2022/09/19 04:11:57;;;;;;;;;;;12.20;99.90;;;;;;5009870;28;19925;-78
2022/09/19 04:14:23;;;;;;;;;;;12.30;99.90;;;;;;5009430;28;19940;-76
2022/09/19 04:16:49;;;;;;;;;;;12.30;99.90;;;;;;5008255;28;19925;-77
2022/09/19 04:19:15;;;;;;;;;;;12.30;99.90;;;;;;5009493;28;19933;-77
2022/09/19 04:21:41;;;;;;;;;;;12.30;99.90;;;;;;5009253;28;19929;-77
2022/09/19 04:24:08;;;;;;;;;;;12.30;99.90;;;;;;5009492;28;19925;-77
2022/09/19 04:26:33;;;;;;;;;;;12.30;99.90;;;;;;5008754;28;19926;-77
2022/09/19 04:29:02;;;;;;;;;;;12.30;99.90;;;;;;5009490;28;20296;-77
2022/09/19 04:31:28;;;;;;;;;;;12.30;99.90;;;;;;5008859;28;19930;-77
2022/09/19 04:33:56;;;;;;;;;;;12.30;99.90;;;;;;5008464;28;19980;-77
2022/09/19 04:36:23;;;;;;;;;;;12.30;99.90;;;;;;5009183;28;19952;-77
2022/09/19 04:38:52;;;;;;;;;;;12.30;99.90;;;;;;5008290;28;19933;-77
2022/09/19 04:41:18;;;;;;;;;;;12.30;99.90;;;;;;5008982;28;19930;-77
2022/09/19 04:43:47;;;;;;;;;;;12.40;99.90;;;;;;5008487;28;19926;-77
2022/09/19 04:46:18;;;;;;;;;;;12.30;99.90;;;;;;5007942;28;19932;-77
2022/09/19 04:48:43;;;;;;;;;;;12.30;99.90;;;;;;5008781;28;19931;-77
2022/09/19 04:51:11;;;;;;;;;;;12.30;99.90;;;;;;5008973;28;20406;-77
2022/09/19 04:53:37;;;;;;;;;;;12.30;99.90;;;;;;5008630;28;19921;-77
2022/09/19 04:56:03;;;;;;;;;;;12.30;99.90;;;;;;5008696;28;19925;-77
2022/09/19 04:58:28;;;;;;;;;;;12.30;99.90;;;;;;5009201;28;20003;-77
2022/09/19 05:00:55;;;;;;;;;;;12.30;99.90;;;;;;5007807;28;19926;-77
2022/09/19 05:03:25;;;;;;;;;;;12.30;99.90;;;;;;5008836;28;19948;-77
2022/09/19 05:05:51;;;;;;;;;;;12.30;99.90;;;;;;5007210;28;19928;-78
2022/09/19 05:08:27;;;;;;;;;;;12.30;99.90;;;;;;5008555;28;20383;-76
2022/09/19 05:11:02;;;;;;;;;;;12.30;99.90;;;;;;5007795;28;20376;-77
2022/09/19 05:13:28;;;;;;;;;;;12.30;99.90;;;;;;5008772;28;20560;-77
2022/09/19 05:15:54;;;;;;;;;;;12.30;99.90;;;;;;5006780;28;19940;-77
2022/09/19 05:18:21;;;;;;;;;;;12.30;99.90;;;;;;4988735;28;20396;-78
2022/09/19 05:20:48;;;;;;;;;;;12.20;99.90;;;;;;4988362;28;19926;-78
2022/09/19 05:23:16;;;;;;;;;;;12.20;99.90;;;;;;4988496;28;19925;-76
2022/09/19 05:25:42;;;;;;;;;;;12.20;99.90;;;;;;5004719;28;19926;-76
2022/09/19 05:28:08;;;;;;;;;;;12.20;99.90;;;;;;5008127;28;19956;-76
2022/09/19 05:30:38;;;;;;;;;;;12.20;99.90;;;;;;5007563;28;19925;-77
2022/09/19 05:33:04;;;;;;;;;;;12.20;99.90;;;;;;5008288;28;19932;-77
2022/09/19 05:35:30;;;;;;;;;;;12.20;99.90;;;;;;5007755;28;20376;-79
2022/09/19 05:37:57;;;;;;;;;;;12.20;99.90;;;;;;5008415;28;19930;-77
2022/09/19 05:40:23;;;;;;;;;;;12.30;99.90;;;;;;5006875;28;19971;-76
2022/09/19 05:42:51;;;;;;;;;;;12.20;99.90;;;;;;5007586;28;20024;-77
2022/09/19 05:45:17;;;;;;;;;;;12.20;99.90;;;;;;5008232;28;19926;-78
2022/09/19 05:47:42;;;;;;;;;;;12.20;99.90;;;;;;5006580;28;19925;-77
2022/09/19 05:50:09;;;;;;;;;;;12.30;99.90;;;;;;5005456;28;19956;-77
2022/09/19 05:55:20;;;;;;;;;;;12.40;99.90;;;;;;5007879;28;20056;-76
2022/09/19 05:57:50;;;;;;;;;;;12.40;99.90;;;;;;5007118;28;20016;-77
2022/09/19 06:00:15;;;;;;;;;;;12.40;99.90;;;;;;5006716;28;19933;-77
2022/09/19 06:02:41;;;;;;;;;;;12.40;99.90;;;;;;5006321;28;19926;-77
2022/09/19 06:05:06;;;;;;;;;;;12.40;99.90;;;;;;5007905;28;21224;-77
2022/09/19 06:07:32;;;;;;;;;;;12.40;99.90;;;;;;5006051;28;19948;-77
2022/09/19 06:09:58;;;;;;;;;;;12.50;99.90;;;;;;5007723;28;19929;-77
2022/09/19 06:12:23;;;;;;;;;;;12.50;99.90;;;;;;5007804;28;20379;-77
2022/09/19 06:14:49;;;;;;;;;;;12.50;99.90;;;;;;5006661;28;19936;-79
2022/09/19 06:17:16;;;;;;;;;;;12.50;99.90;;;;;;5006538;28;20347;-77
2022/09/19 06:19:41;;;;;;;;;;;12.50;99.90;;;;;;5006361;28;19980;-78
2022/09/19 06:22:07;;;;;;;;;;;12.50;99.90;;;;;;5007097;28;19934;-77
2022/09/19 06:24:32;;;;;;;;;;;12.50;99.90;;;;;;5006579;28;19965;-78
2022/09/19 06:26:58;;;;;;;;;;;12.50;99.90;;;;;;5004018;28;19939;-77
2022/09/19 06:29:23;;;;;;;;;;;12.50;99.90;;;;;;5006414;28;19972;-77
2022/09/19 06:31:49;;;;;;;;;;;12.50;99.90;;;;;;5005121;28;19930;-76
2022/09/19 06:34:16;;;;;;;;;;;12.50;99.90;;;;;;5007178;28;20066;-77
2022/09/19 06:36:43;;;;;;;;;;;12.50;99.90;;;;;;5006281;28;20004;-77
2022/09/19 06:39:08;;;;;;;;;;;12.50;99.90;;;;;;5007688;28;19929;-77
2022/09/19 06:41:34;;;;;;;;;;;12.60;99.90;;;;;;5007038;28;19933;-77
2022/09/19 06:44:01;;;;;;;;;;;12.60;99.90;;;;;;5007738;28;19932;-78
2022/09/19 06:46:26;;;;;;;;;;;12.60;99.90;;;;;;5006715;28;19972;-77
2022/09/19 06:48:52;;;;;;;;;;;12.60;99.90;;;;;;5007375;28;19929;-78
2022/09/19 06:51:17;;;;;;;;;;;12.60;99.90;;;;;;5007390;28;20424;-77
2022/09/19 06:53:47;;;;;;;;;;;12.60;99.90;;;;;;5007301;28;19925;-77
2022/09/19 06:56:13;;;;;;;;;;;12.50;99.90;;;;;;5007230;28;19945;-77
2022/09/19 06:58:38;;;;;;;;;;;12.50;99.90;;;;;;5006247;28;19931;-78
2022/09/19 07:01:04;;;;;;;;;;;12.60;99.90;;;;;;5005785;28;20395;-77
2022/09/19 07:03:29;;;;;;;;;;;12.60;99.90;;;;;;5010991;28;19946;-80
2022/09/19 07:05:56;;;;;;;;;;;12.60;99.90;;;;;;5009986;28;19929;-77
2022/09/19 07:08:22;;;;;;;;;;;12.60;99.90;;;;;;5010297;28;20005;-77
2022/09/19 07:10:47;;;;;;;;;;;12.70;99.90;;;;;;5009590;28;20408;-77
2022/09/19 07:13:14;;;;;;;;;;;12.70;99.90;;;;;;5010070;28;19953;-77
2022/09/19 07:15:40;;;;;;;;;;;12.70;99.90;;;;;;5007870;28;19932;-76
2022/09/19 07:18:10;;;;;;;;;;;12.70;99.90;;;;;;5010430;28;20012;-77
2022/09/19 07:20:36;;;;;;;;;;;12.70;99.90;;;;;;5025429;28;20299;-75
2022/09/19 07:23:03;;;;;;;;;;;12.80;99.90;;;;;;5008892;28;19929;-76
2022/09/19 07:25:29;;;;;;;;;;;12.80;99.90;;;;;;5010927;28;19926;-75
2022/09/19 07:27:55;;;;;;;;;;;12.90;99.90;;;;;;5010554;28;19980;-75
2022/09/19 07:30:21;;;;;;;;;;;13.00;99.90;;;;;;5005825;28;19929;-77
2022/09/19 07:32:46;;;;;;;;;;;13.00;99.90;;;;;;5006845;28;19932;-76
2022/09/19 07:35:12;;;;;;;;;;;13.10;99.90;;;;;;5010208;28;19948;-76
2022/09/19 07:37:37;;;;;;;;;;;13.10;99.90;;;;;;5009936;28;19929;-76
2022/09/19 07:40:03;;;;;;;;;;;13.20;99.90;;;;;;5010017;28;19932;-76
2022/09/19 07:42:28;;;;;;;;;;;13.30;99.90;;;;;;5005745;28;19976;-76
2022/09/19 07:44:54;;;;;;;;;;;13.30;99.90;;;;;;4998708;28;20308;-76
2022/09/19 07:47:29;;;;;;;;;;;13.40;99.90;;;;;;4997145;28;19936;-76
2022/09/19 07:49:54;;;;;;;;;;;13.40;99.90;;;;;;5017568;28;19933;-76
2022/09/19 07:52:22;;;;;;;;;;;13.50;99.90;;;;;;5003749;28;19930;-76
2022/09/19 07:54:48;;;;;;;;;;;13.50;99.90;;;;;;5011033;28;19930;-76
2022/09/19 07:57:13;;;;;;;;;;;13.60;99.90;;;;;;5004828;28;20372;-76
2022/09/19 07:59:39;;;;;;;;;;;13.60;99.90;;;;;;5009622;28;20024;-76
2022/09/19 08:02:07;;;;;;;;;;;13.70;99.90;;;;;;5007824;28;19926;-76
2022/09/19 08:04:32;;;;;;;;;;;13.70;99.90;;;;;;5007876;28;20340;-76
2022/09/19 08:06:58;;;;;;;;;;;13.80;99.90;;;;;;5009827;28;19972;-79
2022/09/19 08:09:23;;;;;;;;;;;13.70;99.90;;;;;;5008433;28;19926;-77
2022/09/19 08:11:49;;;;;;;;;;;13.80;99.90;;;;;;5008030;28;19929;-78
2022/09/19 08:14:14;;;;;;;;;;;13.80;99.90;;;;;;5008306;28;19926;-80
2022/09/19 08:16:40;;;;;;;;;;;13.80;99.90;;;;;;5006698;28;19926;-78
2022/09/19 08:19:05;;;;;;;;;;;13.90;99.90;;;;;;5008962;28;19929;-80
2022/09/19 08:21:31;;;;;;;;;;;13.90;99.90;;;;;;5008828;28;19953;-81
2022/09/19 08:23:57;;;;;;;;;;;13.90;99.90;;;;;;5010075;28;19932;-79
2022/09/19 08:26:24;;;;;;;;;;;13.90;99.90;;;;;;5009290;28;19925;-79
2022/09/19 08:28:50;;;;;;;;;;;14.00;99.90;;;;;;5008606;28;19933;-79
2022/09/19 08:31:16;;;;;;;;;;;14.00;99.90;;;;;;5009540;28;19971;-79
2022/09/19 08:33:41;;;;;;;;;;;14.10;99.90;;;;;;5028520;28;19971;-81
2022/09/19 08:36:07;;;;;;;;;;;14.10;99.90;;;;;;4997609;28;19969;-81
2022/09/19 08:38:32;;;;;;;;;;;14.10;99.90;;;;;;4989177;28;19965;-81
2022/09/19 08:41:07;;;;;;;;;;;14.20;99.90;;;;;;4994753;28;19933;-81
2022/09/19 08:43:51;;;;;;;;;;;14.20;99.90;;;;;;4986133;28;19934;-82
2022/09/19 08:46:25;;;;;;;;;;;14.30;99.90;;;;;;5006100;28;19931;-81
2022/09/19 08:48:53;;;;;;;;;;;14.30;99.90;;;;;;5008353;28;19925;-81
2022/09/19 08:51:22;;;;;;;;;;;14.30;99.90;;;;;;5008332;28;19930;-81
2022/09/19 08:53:50;;;;;;;;;;;14.30;99.90;;;;;;4997390;28;19975;-81
2022/09/19 08:56:18;;;;;;;;;;;14.30;99.90;;;;;;4999139;28;19933;-81
2022/09/19 08:58:55;;;;;;;;;;;14.30;99.90;;;;;;4997725;28;19984;-81
2022/09/19 09:01:22;;;;;;;;;;;14.20;99.90;;;;;;4994256;28;20016;-81
2022/09/19 09:03:54;;;;;;;;;;;14.10;99.90;;;;;;4992059;28;19926;-80
2022/09/19 09:06:29;;;;;;;;;;;14.00;99.90;;;;;;4999898;28;19957;-80
2022/09/19 09:09:00;;;;;;;;;;;13.90;99.90;;;;;;5009129;28;19933;-80
2022/09/19 09:11:32;;;;;;;;;;;13.80;99.90;;;;;;4986239;28;19932;-80
2022/09/19 09:14:02;;;;;;;;;;;13.80;99.90;;;;;;4989460;28;19926;-81
2022/09/19 09:16:46;;;;;;;;;;;13.70;99.90;;;;;;5004959;28;19960;-80
2022/09/19 09:19:12;;;;;;;;;;;13.70;99.90;;;;;;5002421;28;20004;-80
2022/09/19 09:21:59;;;;;;;;;;;13.70;99.90;;;;;;5007923;28;19925;-81
2022/09/19 09:24:28;;;;;;;;;;;13.70;99.90;;;;;;5023033;28;19921;-81
2022/09/19 09:26:55;;;;;;;;;;;13.60;99.90;;;;;;5022982;28;19925;-81
2022/09/19 09:29:30;;;;;;;;;;;13.70;99.90;;;;;;5006505;28;19936;-80
2022/09/19 09:31:59;;;;;;;;;;;13.60;99.90;;;;;;5006440;28;19934;-81
2022/09/19 09:34:36;;;;;;;;;;;13.60;99.90;;;;;;5008364;28;19953;-81
2022/09/19 09:37:06;;;;;;;;;;;13.60;99.90;;;;;;5007034;28;19925;-81
2022/09/19 09:39:49;;;;;;;;;;;13.70;99.90;;;;;;5022899;28;19921;-81
2022/09/19 09:42:17;;;;;;;;;;;13.70;99.90;;;;;;5008127;28;19932;-81
2022/09/19 09:45:09;;;;;;;;;;;13.80;99.90;;;;;;5005974;28;19936;-81
2022/09/19 09:47:43;;;;;;;;;;;13.80;99.90;;;;;;5005522;28;19932;-81
2022/09/19 09:50:22;;;;;;;;;;;13.90;99.90;;;;;;5008158;28;19933;-81
2022/09/19 09:53:00;;;;;;;;;;;13.90;99.90;;;;;;5006567;28;19925;-81
2022/09/19 09:58:28;;;;;;;;;;;14.00;99.90;;;;;;4992040;28;19926;-81
2022/09/19 10:03:57;;;;;;;;;;;14.20;99.90;;;;;;5005984;28;20013;-81
2022/09/19 10:06:24;;;;;;;;;;;14.30;99.90;;;;;;5006205;28;20372;-81
2022/09/19 10:09:08;;;;;;;;;;;14.40;99.90;;;;;;5007558;28;19952;-81
2022/09/19 10:11:51;;;;;;;;;;;14.40;99.90;;;;;;5007503;28;20008;-81
2022/09/19 10:14:19;;;;;;;;;;;14.40;99.90;;;;;;5005830;28;19945;-82
2022/09/19 10:16:48;;;;;;;;;;;14.40;99.90;;;;;;5005354;28;20372;-82
2022/09/19 10:19:19;;;;;;;;;;;14.40;99.90;;;;;;5007361;28;19929;-84
2022/09/19 10:21:45;;;;;;;;;;;14.40;99.90;;;;;;5007461;28;19925;-83
2022/09/19 10:24:29;;;;;;;;;;;14.50;99.90;;;;;;5005988;28;19928;-83
2022/09/19 10:27:00;;;;;;;;;;;14.50;99.90;;;;;;5006431;28;19925;-82
2022/09/19 10:29:25;;;;;;;;;;;14.50;99.90;;;;;;5022662;28;19932;-83
2022/09/19 10:31:54;;;;;;;;;;;14.50;99.90;;;;;;5006176;28;20019;-82
2022/09/19 10:34:27;;;;;;;;;;;14.50;99.90;;;;;;5005979;28;19929;-82
2022/09/19 10:36:53;;;;;;;;;;;14.40;99.90;;;;;;5007285;28;19932;-82
2022/09/19 10:39:21;;;;;;;;;;;14.20;99.90;;;;;;5009847;28;20241;-81
2022/09/19 10:41:47;;;;;;;;;;;14.10;99.90;;;;;;5009064;28;19964;-81
2022/09/19 10:44:15;;;;;;;;;;;13.90;99.90;;;;;;5010261;28;19973;-81
2022/09/19 10:47:13;;;;;;;;;;;13.70;99.90;;;;;;5008478;28;19925;-79
2022/09/19 10:49:48;;;;;;;;;;;13.70;99.90;;;;;;5000711;28;19926;-81
2022/09/19 10:52:27;;;;;;;;;;;13.50;99.90;;;;;;5009731;28;19980;-82
2022/09/19 10:54:53;;;;;;;;;;;13.50;99.90;;;;;;5009406;28;20392;-81
2022/09/19 10:57:37;;;;;;;;;;;13.40;99.90;;;;;;5010864;28;19972;-81
2022/09/19 11:00:04;;;;;;;;;;;13.30;99.90;;;;;;5009805;28;19941;-81
2022/09/19 11:02:30;;;;;;;;;;;13.10;99.90;;;;;;5010401;28;19926;-82
2022/09/19 11:05:03;;;;;;;;;;;13.10;99.90;;;;;;5026012;28;19932;-81
2022/09/19 11:07:31;;;;;;;;;;;13.00;99.90;;;;;;4995984;28;20415;-81
2022/09/19 11:10:01;;;;;;;;;;;12.90;99.90;;;;;;5026406;28;19926;-82
2022/09/19 11:12:27;;;;;;;;;;;12.90;99.90;;;;;;5010847;28;19935;-83
2022/09/19 11:14:55;;;;;;;;;;;12.90;99.90;;;;;;5008531;28;20012;-78
2022/09/19 11:17:39;;;;;;;;;;;13.00;99.90;;;;;;5010501;28;19975;-78
2022/09/19 11:20:31;;;;;;;;;;;13.00;99.90;;;;;;5009347;28;19925;-85
2022/09/19 11:23:28;;;;;;;;;;;13.10;99.90;;;;;;4998326;28;19980;-78
2022/09/19 11:25:53;;;;;;;;;;;13.10;99.90;;;;;;5009656;28;20435;-77
2022/09/19 11:28:34;;;;;;;;;;;13.30;99.90;;;;;;5010034;28;20107;-78
2022/09/19 11:31:05;;;;;;;;;;;13.40;99.90;;;;;;5009148;28;19926;-78
2022/09/19 11:33:39;;;;;;;;;;;13.40;99.90;;;;;;5010066;28;19921;-79
2022/09/19 11:36:13;;;;;;;;;;;13.50;99.90;;;;;;5009707;28;20060;-78
2022/09/19 11:39:03;;;;;;;;;;;13.50;99.90;;;;;;5009853;28;20063;-78
2022/09/19 11:41:28;;;;;;;;;;;13.50;99.90;;;;;;5008657;28;19930;-78
2022/09/19 11:44:12;;;;;;;;;;;13.60;99.90;;;;;;5008669;28;19921;-78
2022/09/19 11:46:49;;;;;;;;;;;13.70;99.90;;;;;;4996975;28;19929;-78
2022/09/19 11:49:22;;;;;;;;;;;13.70;99.90;;;;;;5009809;28;20431;-78
2022/09/19 11:52:02;;;;;;;;;;;13.80;99.90;;;;;;5009182;28;20304;-78
2022/09/19 11:54:31;;;;;;;;;;;13.80;99.90;;;;;;5009883;28;20429;-77
2022/09/19 11:57:11;;;;;;;;;;;13.90;99.90;;;;;;5009743;28;19977;-78
2022/09/19 11:59:45;;;;;;;;;;;13.90;99.90;;;;;;5007494;28;19933;-78
2022/09/19 12:02:21;;;;;;;;;;;14.00;99.90;;;;;;5007989;28;19930;-77
2022/09/19 12:04:59;;;;;;;;;;;13.90;99.90;;;;;;5007326;28;20340;-78
2022/09/19 12:07:38;;;;;;;;;;;13.90;99.90;;;;;;5008404;28;19925;-79
2022/09/19 12:10:12;;;;;;;;;;;13.90;99.90;;;;;;4991980;28;20246;-77
2022/09/19 12:12:42;;;;;;;;;;;13.90;99.90;;;;;;5007596;28;19929;-78
2022/09/19 12:15:22;;;;;;;;;;;13.90;99.90;;;;;;5007150;28;19952;-78
2022/09/19 12:18:10;;;;;;;;;;;14.00;99.90;;;;;;5004966;28;20561;-81
2022/09/19 12:20:41;;;;;;;;;;;14.00;99.90;;;;;;5008174;28;20056;-83
2022/09/19 12:25:58;;;;;;;;;;;14.20;99.90;;;;;;5009855;28;19995;-79
2022/09/19 12:28:30;;;;;;;;;;;14.20;99.90;;;;;;5002985;28;19926;-81
2022/09/19 12:30:58;;;;;;;;;;;14.30;99.90;;;;;;5007527;28;19925;-80
2022/09/19 12:33:37;;;;;;;;;;;14.30;99.90;;;;;;5024890;28;20383;-81
2022/09/19 12:36:15;;;;;;;;;;;14.20;99.90;;;;;;5008908;28;19932;-81
2022/09/19 12:38:45;;;;;;;;;;;14.20;99.90;;;;;;5008778;28;19921;-81
2022/09/19 12:41:30;;;;;;;;;;;14.20;99.90;;;;;;5009251;28;19929;-81
2022/09/19 12:44:14;;;;;;;;;;;14.30;99.90;;;;;;5008462;28;19940;-80
2022/09/19 12:46:50;;;;;;;;;;;14.30;99.90;;;;;;5006392;28;20015;-81
2022/09/19 12:49:40;;;;;;;;;;;14.40;99.90;;;;;;5009248;28;20495;-80
2022/09/19 12:52:18;;;;;;;;;;;14.40;99.90;;;;;;4991608;28;19926;-78
2022/09/19 12:54:46;;;;;;;;;;;14.40;99.90;;;;;;5008759;28;20335;-79
2022/09/19 12:57:16;;;;;;;;;;;14.40;99.90;;;;;;5007352;28;20012;-79
2022/09/19 12:59:41;;;;;;;;;;;14.40;99.90;;;;;;5001950;28;19930;-83
2022/09/19 13:02:14;;;;;;;;;;;14.40;99.90;;;;;;5003358;28;19936;-85
2022/09/19 13:04:42;;;;;;;;;;;14.40;99.90;;;;;;5008378;28;20020;-81
2022/09/19 13:07:13;;;;;;;;;;;14.40;99.90;;;;;;5009024;28;20012;-86
2022/09/19 13:09:58;;;;;;;;;;;14.50;99.90;;;;;;5008088;28;19951;-84
2022/09/19 13:12:42;;;;;;;;;;;14.50;99.90;;;;;;5007518;28;19932;-80
2022/09/19 13:15:14;;;;;;;;;;;14.40;99.90;;;;;;5000777;28;19925;-80
2022/09/19 13:23:32;;;;;;;;;;;14.50;99.90;;;;;;4992454;28;20019;-80
2022/09/19 13:26:17;;;;;;;;;;;14.50;99.90;;;;;;5007557;28;19930;-80
2022/09/19 13:28:45;;;;;;;;;;;14.40;99.90;;;;;;5007026;28;19969;-82
2022/09/19 13:31:12;;;;;;;;;;;14.40;99.90;;;;;;5007398;28;19929;-80
2022/09/19 13:33:45;;;;;;;;;;;14.40;99.90;;;;;;5007711;28;19934;-82
2022/09/19 13:36:14;;;;;;;;;;;14.50;99.90;;;;;;4993337;28;19932;-81
2022/09/19 13:38:43;;;;;;;;;;;14.40;99.90;;;;;;5023129;28;19925;-85
2022/09/19 13:41:20;;;;;;;;;;;14.50;99.90;;;;;;5023824;28;19925;-84
2022/09/19 13:43:49;;;;;;;;;;;14.50;99.90;;;;;;5008653;28;20004;-82
2022/09/19 13:46:22;;;;;;;;;;;14.50;99.90;;;;;;5006445;28;19944;-81
2022/09/19 13:48:54;;;;;;;;;;;14.50;99.90;;;;;;5008133;28;19947;-81
2022/09/19 13:51:23;;;;;;;;;;;14.50;99.90;;;;;;5008607;28;19929;-83
2022/09/19 13:54:07;;;;;;;;;;;14.50;99.90;;;;;;5007916;28;19925;-85
2022/09/19 13:56:35;;;;;;;;;;;14.50;99.90;;;;;;5007884;28;19925;-82
2022/09/19 13:59:06;;;;;;;;;;;14.50;99.90;;;;;;5008117;28;19922;-81
2022/09/19 14:01:36;;;;;;;;;;;14.50;99.90;;;;;;5006481;28;20008;-83
2022/09/19 14:06:56;;;;;;;;;;;14.50;99.90;;;;;;5006432;28;19979;-86
2022/09/19 14:09:30;;;;;;;;;;;14.50;99.90;;;;;;5007913;28;19932;-82
2022/09/19 14:11:56;;;;;;;;;;;14.50;99.90;;;;;;5008815;28;19933;-81
2022/09/19 14:14:47;;;;;;;;;;;14.50;99.90;;;;;;5010820;28;20416;-80
2022/09/19 14:17:19;;;;;;;;;;;14.50;99.90;;;;;;5012078;28;20347;-81
2022/09/19 14:19:53;;;;;;;;;;;14.50;99.90;;;;;;5011723;28;19935;-81
2022/09/19 14:22:34;;;;;;;;;;;14.50;99.90;;;;;;5011757;28;20307;-81
2022/09/19 14:25:09;;;;;;;;;;;14.50;99.90;;;;;;5011259;28;20383;-81
2022/09/19 14:27:53;;;;;;;;;;;14.50;99.90;;;;;;5011635;28;19932;-80
2022/09/19 14:30:23;;;;;;;;;;;14.60;99.90;;;;;;5010861;28;19932;-81
2022/09/19 14:33:07;;;;;;;;;;;14.50;99.90;;;;;;5011103;28;19925;-80
2022/09/19 14:35:34;;;;;;;;;;;14.50;99.90;;;;;;4996694;28;19961;-82
2022/09/19 14:38:12;;;;;;;;;;;14.50;99.90;;;;;;4997429;28;20329;-82
2022/09/19 14:40:38;;;;;;;;;;;14.50;99.90;;;;;;4999431;28;19957;-80
2022/09/19 14:43:16;;;;;;;;;;;14.50;99.90;;;;;;5000099;28;19994;-80
2022/09/19 14:46:01;;;;;;;;;;;14.50;99.90;;;;;;5007170;28;20437;-80
2022/09/19 14:48:48;;;;;;;;;;;14.40;99.90;;;;;;5000338;28;19965;-80
2022/09/19 14:51:32;;;;;;;;;;;14.40;99.90;;;;;;5023327;28;19926;-80
2022/09/19 14:54:05;;;;;;;;;;;14.40;99.90;;;;;;5010186;28;20060;-80